Time;durP1;ratioP1;P1;durP2;ratioP2;P2;SDS_P1;SDS_P2;PMS_P1;PMS_P2;Temp;Humidity;BMP_temperature;BMP_pressure;BME280_temperature;BME280_humidity;BME280_pressure;Samples;Min_cycle;Max_cycle;Signal;HPM_P1;HPM_P2
2022/01/25 00:10:14;;;;;;;11.60;6.87;;;4.50;99.90;;;;;;5044558;28;20081;-81
2022/01/25 00:15:53;;;;;;;9.53;5.23;;;4.50;99.90;;;;;;5085510;28;20051;-81
2022/01/25 00:26:33;;;;;;;15.77;7.03;;;4.50;99.90;;;;;;5114550;28;20055;-83
2022/01/25 00:29:06;;;;;;;14.32;7.95;;;4.40;99.90;;;;;;5112260;28;20059;-84
2022/01/25 00:31:34;;;;;;;13.17;7.10;;;4.50;99.90;;;;;;5112939;28;20058;-82
2022/01/25 00:34:03;;;;;;;14.60;8.10;;;4.40;99.90;;;;;;5113450;28;20044;-82
2022/01/25 00:36:30;;;;;;;15.83;8.43;;;4.30;99.90;;;;;;5114833;28;20051;-82
2022/01/25 00:38:58;;;;;;;13.33;6.50;;;4.30;99.90;;;;;;5120660;28;20075;-81
2022/01/25 00:41:26;;;;;;;12.03;6.33;;;4.30;99.90;;;;;;5116473;28;20112;-82
2022/01/25 00:43:53;;;;;;;15.87;8.30;;;4.30;99.90;;;;;;5113712;28;20043;-79
2022/01/25 00:46:21;;;;;;;13.57;7.20;;;4.30;99.90;;;;;;5113636;28;20051;-81
2022/01/25 00:48:50;;;;;;;10.20;6.47;;;4.30;99.90;;;;;;5112672;28;20051;-81
2022/01/25 00:51:56;;;;;;;13.37;7.20;;;4.30;99.90;;;;;;5114068;28;20116;-80
2022/01/25 00:54:25;;;;;;;14.63;6.70;;;4.30;99.90;;;;;;5107293;28;20055;-81
2022/01/25 00:56:52;;;;;;;15.47;7.20;;;4.30;99.90;;;;;;5123150;28;20067;-80
2022/01/25 00:59:21;;;;;;;12.67;7.37;;;4.30;99.90;;;;;;5113828;28;20374;-83
2022/01/25 01:01:49;;;;;;;16.27;9.07;;;4.30;99.90;;;;;;5125566;28;20062;-81
2022/01/25 01:04:15;;;;;;;13.73;7.13;;;4.30;99.90;;;;;;5126777;28;20052;-81
2022/01/25 01:06:43;;;;;;;13.63;8.03;;;4.30;99.90;;;;;;5124905;28;20043;-80
2022/01/25 01:09:10;;;;;;;18.53;6.63;;;4.20;99.90;;;;;;5122459;28;20437;-83
2022/01/25 01:11:44;;;;;;;14.23;6.13;;;4.30;99.90;;;;;;5094511;28;20047;-79
2022/01/25 01:14:17;;;;;;;12.50;7.53;;;4.30;99.90;;;;;;5113378;28;20177;-82
2022/01/25 01:16:59;;;;;;;13.90;6.83;;;4.30;99.90;;;;;;5113764;28;20055;-81
2022/01/25 01:30:38;;;;;;;13.87;7.30;;;4.20;99.90;;;;;;5117042;28;20058;-81
2022/01/25 01:33:33;;;;;;;13.40;7.35;;;4.20;99.90;;;;;;5104465;28;20051;-80
2022/01/25 01:39:22;;;;;;;16.23;8.70;;;4.30;99.90;;;;;;5100194;28;20108;-79
2022/01/25 01:44:40;;;;;;;17.00;9.97;;;4.20;99.90;;;;;;5113063;28;20120;-82
2022/01/25 01:47:09;;;;;;;13.53;7.60;;;4.20;99.90;;;;;;5112740;28;20050;-82
2022/01/25 01:49:41;;;;;;;14.47;7.50;;;4.20;99.90;;;;;;5110262;28;20512;-81
2022/01/25 01:52:08;;;;;;;20.33;8.65;;;4.20;99.90;;;;;;5112657;28;20155;-82
2022/01/25 01:54:35;;;;;;;14.67;7.27;;;4.30;99.90;;;;;;5112098;28;20054;-80
2022/01/25 01:57:01;;;;;;;16.90;9.50;;;4.20;99.90;;;;;;5111805;28;20169;-79
2022/01/25 01:59:28;;;;;;;20.90;7.73;;;4.20;99.90;;;;;;5112575;28;20055;-81
2022/01/25 02:01:55;;;;;;;14.63;7.37;;;4.20;99.90;;;;;;5110578;28;20138;-81
2022/01/25 02:04:21;;;;;;;24.67;14.30;;;4.30;99.90;;;;;;5110943;28;20490;-79
2022/01/25 02:06:47;;;;;;;32.90;17.83;;;4.20;99.90;;;;;;5105658;28;20128;-84
2022/01/25 02:09:14;;;;;;;21.47;10.43;;;4.20;99.90;;;;;;5112540;28;20047;-78
2022/01/25 02:11:41;;;;;;;17.30;8.33;;;4.10;99.90;;;;;;5112600;28;20482;-83
2022/01/25 02:14:09;;;;;;;15.90;8.53;;;4.20;99.90;;;;;;5112823;28;20048;-87
2022/01/25 02:16:45;;;;;;;16.77;8.53;;;4.20;99.90;;;;;;5109248;28;20040;-82
2022/01/25 02:24:45;;;;;;;32.47;16.57;;;4.10;99.90;;;;;;5105652;28;20058;-88
2022/01/25 02:27:11;;;;;;;26.23;11.70;;;4.10;99.90;;;;;;5111680;28;20066;-79
2022/01/25 02:29:38;;;;;;;19.37;9.73;;;4.10;99.90;;;;;;5112354;28;20044;-80
2022/01/25 02:32:05;;;;;;;19.70;10.33;;;4.20;99.90;;;;;;5107665;28;20058;-80
2022/01/25 02:34:31;;;;;;;22.00;9.53;;;4.20;99.90;;;;;;5104730;28;20055;-79
2022/01/25 02:37:00;;;;;;;16.97;8.83;;;4.20;99.90;;;;;;5115143;28;20044;-79
2022/01/25 02:39:26;;;;;;;17.47;10.13;;;4.10;99.90;;;;;;5115282;28;20055;-80
2022/01/25 02:41:53;;;;;;;15.90;8.57;;;4.20;99.90;;;;;;5115895;28;20050;-80
2022/01/25 02:44:24;;;;;;;20.73;9.40;;;4.10;99.90;;;;;;5115798;28;20143;-79
2022/01/25 02:49:36;;;;;;;19.23;10.40;;;4.10;99.90;;;;;;5109368;28;20162;-80
2022/01/25 02:52:04;;;;;;;19.07;10.93;;;4.10;99.90;;;;;;5114251;28;20494;-82
2022/01/25 02:54:31;;;;;;;19.77;10.10;;;4.10;99.90;;;;;;5114667;28;20059;-79
2022/01/25 02:56:57;;;;;;;19.43;9.83;;;4.10;99.90;;;;;;5108492;28;20144;-84
2022/01/25 02:59:24;;;;;;;22.30;10.50;;;4.10;99.90;;;;;;5111463;28;20385;-79
2022/01/25 03:01:50;;;;;;;23.80;9.47;;;4.10;99.90;;;;;;5113407;28;20473;-81
2022/01/25 03:04:19;;;;;;;25.07;10.70;;;4.00;99.90;;;;;;5113725;28;20051;-81
2022/01/25 03:06:45;;;;;;;21.37;9.70;;;4.00;99.90;;;;;;5113312;28;20048;-81
2022/01/25 03:09:13;;;;;;;25.50;10.20;;;4.00;99.90;;;;;;5107240;28;20488;-81
2022/01/25 03:11:39;;;;;;;22.43;10.27;;;4.00;99.90;;;;;;5097498;28;20043;-82
2022/01/25 03:14:09;;;;;;;24.30;11.73;;;4.00;99.90;;;;;;5112272;28;20040;-82
2022/01/25 03:16:41;;;;;;;19.23;9.90;;;3.90;99.90;;;;;;5115175;28;20052;-80
2022/01/25 03:21:51;;;;;;;26.03;12.87;;;4.00;99.90;;;;;;5114933;28;20048;-80
2022/01/25 03:24:17;;;;;;;23.17;11.60;;;4.00;99.90;;;;;;5113359;28;20047;-82
2022/01/25 03:26:43;;;;;;;23.40;10.43;;;4.00;99.90;;;;;;5114074;28;20098;-82
2022/01/25 03:29:10;;;;;;;24.73;9.90;;;3.90;99.90;;;;;;5113635;28;20047;-81
2022/01/25 03:31:36;;;;;;;27.73;12.10;;;3.90;99.90;;;;;;5113730;28;20043;-81
2022/01/25 03:34:02;;;;;;;20.00;10.37;;;3.80;99.90;;;;;;5112024;28;20070;-79
2022/01/25 03:36:28;;;;;;;22.73;9.57;;;3.90;99.90;;;;;;5108634;28;20066;-81
2022/01/25 03:38:55;;;;;;;34.97;12.87;;;3.90;99.90;;;;;;5112304;28;20124;-80
2022/01/25 03:41:23;;;;;;;28.00;11.17;;;3.90;99.90;;;;;;5113269;28;20058;-81
2022/01/25 03:43:53;;;;;;;19.33;10.83;;;3.90;99.90;;;;;;5117283;28;20051;-80
2022/01/25 03:46:26;;;;;;;22.53;12.13;;;3.80;99.90;;;;;;5115971;28;20508;-80
2022/01/25 03:51:37;;;;;;;20.23;11.23;;;3.80;99.90;;;;;;5118554;28;20058;-81
2022/01/25 03:54:04;;;;;;;23.07;10.83;;;3.80;99.90;;;;;;5118575;28;20043;-79
2022/01/25 03:56:31;;;;;;;21.90;10.07;;;3.70;99.90;;;;;;5119723;28;20044;-81
2022/01/25 03:58:57;;;;;;;21.17;9.80;;;3.80;99.90;;;;;;5119188;28;20051;-80
2022/01/25 04:01:23;;;;;;;19.70;11.20;;;3.70;99.90;;;;;;5107290;28;20096;-80
2022/01/25 04:03:57;;;;;;;22.30;10.00;;;3.70;99.90;;;;;;5116283;28;20059;-78
2022/01/25 04:06:23;;;;;;;21.70;10.60;;;3.70;99.90;;;;;;5115997;28;20048;-81
2022/01/25 04:08:49;;;;;;;23.37;10.60;;;3.70;99.90;;;;;;5113703;28;20127;-79
2022/01/25 04:11:15;;;;;;;27.63;10.40;;;3.70;99.90;;;;;;5112723;28;20512;-82
2022/01/25 04:13:42;;;;;;;23.83;10.80;;;3.70;99.90;;;;;;5114645;28;20632;-81
2022/01/25 04:16:13;;;;;;;28.63;10.03;;;3.70;99.90;;;;;;5115772;28;20060;-80
2022/01/25 04:18:53;;;;;;;23.50;10.47;;;3.70;99.90;;;;;;5115309;28;20071;-80
2022/01/25 04:21:41;;;;;;;22.70;8.50;;;3.60;99.90;;;;;;5115318;28;20051;-81
2022/01/25 04:26:54;;;;;;;24.63;9.47;;;3.60;99.90;;;;;;5115041;28;20088;-79
2022/01/25 04:29:21;;;;;;;21.83;10.07;;;3.70;99.90;;;;;;5115850;28;20035;-80
2022/01/25 04:31:47;;;;;;;20.23;9.80;;;3.60;99.90;;;;;;5130532;28;20044;-78
2022/01/25 04:34:26;;;;;;;21.90;9.23;;;3.60;99.90;;;;;;5119225;28;20043;-79
2022/01/25 04:48:51;;;;;;;24.73;10.77;;;3.50;99.90;;;;;;5125750;28;20063;-79
2022/01/25 04:53:37;;;;;;;26.10;11.07;;;3.60;99.90;;;;;;5114347;28;20145;-79
2022/01/25 04:56:10;;;;;;;25.33;9.73;;;3.70;99.90;;;;;;5112413;28;20047;-80
2022/01/25 04:58:43;;;;;;;28.13;10.07;;;3.60;99.90;;;;;;5112475;28;20386;-80
2022/01/25 05:01:10;;;;;;;21.30;11.10;;;3.60;99.90;;;;;;5108152;28;20058;-81
2022/01/25 05:03:52;;;;;;;25.33;10.10;;;3.60;99.90;;;;;;5111831;28;20063;-80
2022/01/25 05:06:18;;;;;;;25.20;8.60;;;3.60;99.90;;;;;;5109140;28;20505;-79
2022/01/25 05:08:48;;;;;;;19.27;10.07;;;3.60;99.90;;;;;;5110996;28;20055;-80
2022/01/25 05:11:22;;;;;;;18.80;10.23;;;3.60;99.90;;;;;;5112446;28;20075;-81
2022/01/25 05:13:54;;;;;;;15.13;8.73;;;3.60;99.90;;;;;;5112731;28;20047;-80
2022/01/25 05:16:28;;;;;;;;;;;3.60;99.90;;;;;;5108167;28;20031;-80
2022/01/25 05:19:04;;;;;;;20.47;9.47;;;3.60;99.90;;;;;;5109758;28;20008;-80
2022/01/25 05:24:14;;;;;;;18.43;8.63;;;3.60;99.90;;;;;;5109626;28;20459;-80
2022/01/25 05:26:41;;;;;;;24.43;10.40;;;3.60;99.90;;;;;;5106999;28;20058;-80
2022/01/25 05:29:08;;;;;;;14.77;6.90;;;3.60;99.90;;;;;;5107633;28;20052;-81
2022/01/25 05:31:35;;;;;;;24.07;10.77;;;3.50;99.90;;;;;;5108841;28;20492;-80
2022/01/25 05:34:01;;;;;;;21.40;8.97;;;3.60;99.90;;;;;;5106744;28;20039;-80
2022/01/25 05:36:27;;;;;;;22.97;10.47;;;3.60;99.90;;;;;;5111384;28;20108;-80
2022/01/25 05:38:56;;;;;;;21.33;9.13;;;3.60;99.90;;;;;;5108993;28;20052;-81
2022/01/25 05:41:26;;;;;;;17.87;8.07;;;3.60;99.90;;;;;;5111480;28;20504;-80
2022/01/25 05:44:12;;;;;;;16.83;9.70;;;3.60;99.90;;;;;;5109821;28;20435;-81
2022/01/25 05:46:45;;;;;;;20.40;7.90;;;3.60;99.90;;;;;;5112561;28;20054;-81
2022/01/25 05:49:11;;;;;;;20.10;8.37;;;3.60;99.90;;;;;;5111232;28;20040;-81
2022/01/25 05:51:37;;;;;;;23.20;8.83;;;3.60;99.90;;;;;;5109356;28;20135;-79
2022/01/25 05:54:03;;;;;;;19.10;10.17;;;3.60;99.90;;;;;;5111113;28;20062;-81
2022/01/25 05:56:29;;;;;;;27.23;8.97;;;3.70;99.90;;;;;;5112501;28;20105;-80
2022/01/25 05:58:55;;;;;;;27.00;9.33;;;3.70;99.90;;;;;;5111153;28;20092;-80
2022/01/25 06:01:21;;;;;;;19.77;9.43;;;3.60;99.90;;;;;;5110129;28;20039;-79
2022/01/25 06:03:48;;;;;;;20.67;9.30;;;3.70;99.90;;;;;;5109311;28;20040;-79
2022/01/25 06:06:14;;;;;;;19.47;8.23;;;3.70;99.90;;;;;;5111675;28;20052;-80
2022/01/25 06:08:40;;;;;;;23.73;9.70;;;3.60;99.90;;;;;;5111913;28;20052;-80
2022/01/25 06:11:07;;;;;;;18.17;7.37;;;3.70;99.90;;;;;;5115891;28;20063;-80
2022/01/25 06:13:33;;;;;;;25.70;10.23;;;3.70;99.90;;;;;;5113509;28;20043;-80
2022/01/25 06:15:59;;;;;;;17.10;9.17;;;3.60;99.90;;;;;;5114743;28;20039;-80
2022/01/25 06:18:25;;;;;;;19.67;8.00;;;3.60;99.90;;;;;;5115756;28;20043;-80
2022/01/25 06:20:52;;;;;;;19.67;9.40;;;3.70;99.90;;;;;;5114634;28;20092;-80
2022/01/25 06:23:18;;;;;;;20.17;9.50;;;3.70;99.90;;;;;;5112787;28;20052;-81
2022/01/25 06:25:44;;;;;;;15.77;8.13;;;3.70;99.90;;;;;;5112474;28;20113;-81
2022/01/25 06:28:10;;;;;;;19.20;7.73;;;3.70;99.90;;;;;;5122218;28;20055;-80
2022/01/25 06:30:36;;;;;;;18.97;7.77;;;3.70;99.90;;;;;;5126587;28;20044;-82
2022/01/25 06:33:03;;;;;;;16.63;7.80;;;3.60;99.90;;;;;;5121808;28;20052;-80
2022/01/25 06:35:30;;;;;;;21.93;10.33;;;3.70;99.90;;;;;;5113952;28;20500;-80
2022/01/25 06:37:57;;;;;;;16.70;8.53;;;3.60;99.90;;;;;;5096941;28;20083;-80
2022/01/25 06:40:24;;;;;;;18.73;9.20;;;3.60;99.90;;;;;;5114450;28;20048;-81
2022/01/25 06:42:50;;;;;;;16.77;9.37;;;3.70;99.90;;;;;;5112484;28;20094;-84
2022/01/25 06:45:19;;;;;;;26.97;12.63;;;3.70;99.90;;;;;;5114868;28;20550;-83
2022/01/25 06:47:48;;;;;;;21.20;12.50;;;3.60;99.90;;;;;;5110341;28;20050;-87
2022/01/25 06:50:16;;;;;;;17.23;8.67;;;3.60;99.90;;;;;;5117610;28;20434;-84
2022/01/25 06:52:44;;;;;;;18.33;8.10;;;3.60;99.90;;;;;;5119810;28;20370;-87
2022/01/25 06:55:13;;;;;;;20.70;9.73;;;3.60;99.90;;;;;;5120591;28;20051;-87
2022/01/25 06:57:41;;;;;;;15.77;8.80;;;3.60;99.90;;;;;;5115560;28;20047;-87
2022/01/25 07:00:11;;;;;;;20.07;8.83;;;3.60;99.90;;;;;;5111253;28;20157;-87
2022/01/25 07:02:38;;;;;;;17.73;9.33;;;3.60;99.90;;;;;;5106222;28;20048;-87
2022/01/25 07:05:05;;;;;;;20.60;9.30;;;3.60;99.90;;;;;;5109843;28;20062;-78
2022/01/25 07:07:31;;;;;;;20.30;8.83;;;3.70;99.90;;;;;;5105695;28;20044;-78
2022/01/25 07:09:57;;;;;;;20.33;8.87;;;3.70;99.90;;;;;;5105383;28;20059;-79
2022/01/25 07:12:24;;;;;;;25.37;8.17;;;3.70;99.90;;;;;;5110859;28;20110;-79
2022/01/25 07:17:31;;;;;;;17.70;9.32;;;3.80;99.90;;;;;;5117052;28;21467;-87
2022/01/25 07:20:01;;;;;;;16.13;7.47;;;3.80;99.90;;;;;;5113412;28;20060;-93
2022/01/25 07:22:27;;;;;;;19.30;7.77;;;3.70;99.90;;;;;;5110569;28;20104;-88
2022/01/25 07:24:55;;;;;;;15.33;9.33;;;3.70;99.90;;;;;;5117288;28;20051;-91
2022/01/25 07:27:21;;;;;;;19.50;8.63;;;3.70;99.90;;;;;;5111235;28;20043;-91
2022/01/25 07:29:49;;;;;;;17.57;8.87;;;3.60;99.90;;;;;;5113033;28;20065;-90
2022/01/25 07:32:16;;;;;;;21.47;8.93;;;3.60;99.90;;;;;;5113915;28;20070;-86
2022/01/25 07:34:42;;;;;;;19.20;8.30;;;3.60;99.90;;;;;;5113931;28;20048;-85
2022/01/25 07:37:08;;;;;;;19.27;10.20;;;3.60;99.90;;;;;;5113656;28;20052;-82
2022/01/25 07:39:34;;;;;;;17.33;8.10;;;3.70;99.90;;;;;;5113416;28;20055;-82
2022/01/25 07:42:00;;;;;;;14.20;8.17;;;3.70;99.90;;;;;;5124994;28;20059;-84
2022/01/25 07:44:30;;;;;;;21.57;9.60;;;3.80;99.90;;;;;;5128388;28;20046;-81
2022/01/25 07:46:57;;;;;;;19.87;9.10;;;3.80;99.90;;;;;;5116715;28;20535;-80
2022/01/25 07:49:24;;;;;;;16.10;7.43;;;3.80;99.90;;;;;;5110201;28;20486;-78
2022/01/25 07:51:50;;;;;;;25.20;9.40;;;3.80;99.90;;;;;;5115068;28;20135;-84
2022/01/25 07:54:16;;;;;;;22.83;10.20;;;3.70;99.90;;;;;;5092421;28;20397;-79
2022/01/25 07:56:42;;;;;;;17.70;9.33;;;3.80;99.90;;;;;;5114016;28;20176;-77
2022/01/25 07:59:08;;;;;;;17.30;7.47;;;3.70;99.90;;;;;;5083716;28;20052;-81
2022/01/25 08:01:34;;;;;;;21.33;9.00;;;3.80;99.90;;;;;;5095841;28;20067;-80
2022/01/25 08:04:01;;;;;;;21.73;9.33;;;3.80;99.90;;;;;;5110002;28;20377;-80
2022/01/25 08:06:28;;;;;;;27.50;9.43;;;3.80;99.90;;;;;;5112162;28;20062;-81
2022/01/25 08:08:54;;;;;;;21.83;11.70;;;3.80;99.90;;;;;;5112033;28;20051;-82
2022/01/25 08:11:20;;;;;;;25.43;10.10;;;3.80;99.90;;;;;;5121810;28;20418;-78
2022/01/25 08:13:49;;;;;;;24.10;10.20;;;3.70;99.90;;;;;;5112197;28;20409;-80
2022/01/25 08:16:15;;;;;;;21.87;11.27;;;3.80;99.90;;;;;;5112209;28;20039;-81
2022/01/25 08:18:41;;;;;;;26.40;11.27;;;3.80;99.90;;;;;;5113754;28;20035;-82
2022/01/25 08:21:08;;;;;;;22.10;10.07;;;3.80;99.90;;;;;;5113367;28;20092;-81
2022/01/25 08:23:34;;;;;;;23.10;10.60;;;3.90;99.90;;;;;;5112245;28;20051;-77
2022/01/25 08:26:01;;;;;;;22.97;11.60;;;3.90;99.90;;;;;;5113381;28;20047;-80
2022/01/25 08:28:27;;;;;;;27.97;10.57;;;3.90;99.90;;;;;;5113386;28;20097;-88
2022/01/25 08:30:53;;;;;;;22.10;11.77;;;3.90;99.90;;;;;;5114078;28;20381;-75
2022/01/25 08:33:20;;;;;;;26.90;10.63;;;3.90;99.90;;;;;;5111471;28;20048;-82
2022/01/25 08:35:46;;;;;;;20.87;11.03;;;3.90;99.90;;;;;;5111723;28;20059;-84
2022/01/25 08:38:13;;;;;;;24.67;11.07;;;3.90;99.90;;;;;;5116709;28;20381;-81
2022/01/25 08:40:39;;;;;;;28.67;11.43;;;4.00;99.90;;;;;;5113504;28;20052;-82
2022/01/25 08:43:05;;;;;;;34.73;12.73;;;4.00;99.90;;;;;;5110870;28;20541;-84
2022/01/25 08:45:31;;;;;;;29.07;11.63;;;3.90;99.90;;;;;;5113530;28;20056;-83
2022/01/25 08:47:57;;;;;;;33.70;15.17;;;4.00;99.90;;;;;;5111488;28;20048;-84
2022/01/25 08:50:24;;;;;;;24.43;12.23;;;4.20;99.90;;;;;;5092323;28;20126;-83
2022/01/25 08:52:50;;;;;;;26.53;13.60;;;4.30;99.90;;;;;;5111700;28;20479;-84
2022/01/25 08:55:17;;;;;;;30.33;11.67;;;4.40;99.90;;;;;;5112838;28;20043;-83
2022/01/25 08:57:43;;;;;;;27.97;10.80;;;4.50;99.90;;;;;;5112643;28;20063;-85
2022/01/25 09:00:12;;;;;;;24.00;11.83;;;4.40;99.90;;;;;;5111543;28;20048;-84
2022/01/25 09:02:39;;;;;;;31.77;12.20;;;4.40;99.90;;;;;;5110441;28;20051;-84
2022/01/25 09:05:06;;;;;;;31.27;14.00;;;4.30;99.90;;;;;;5076654;28;20481;-83
2022/01/25 09:07:33;;;;;;;24.30;10.40;;;4.20;99.90;;;;;;5110690;28;20089;-83
2022/01/25 09:09:59;;;;;;;24.80;11.20;;;4.20;99.90;;;;;;5109501;28;20048;-84
2022/01/25 09:12:27;;;;;;;23.83;10.93;;;4.20;99.90;;;;;;5118828;28;20044;-85
2022/01/25 09:14:53;;;;;;;25.27;10.13;;;4.30;99.90;;;;;;5122438;28;20056;-85
2022/01/25 09:17:21;;;;;;;26.60;10.80;;;4.30;99.90;;;;;;5112760;28;20039;-85
2022/01/25 09:19:47;;;;;;;25.77;9.43;;;4.30;99.90;;;;;;5112535;28;20101;-84
2022/01/25 09:22:13;;;;;;;25.17;12.30;;;4.40;99.90;;;;;;5110844;28;20048;-79
2022/01/25 09:24:39;;;;;;;23.77;10.53;;;4.50;99.90;;;;;;5121898;28;20052;-82
2022/01/25 09:27:08;;;;;;;71.27;30.73;;;4.70;99.90;;;;;;5135315;28;20051;-84
2022/01/25 09:29:35;;;;;;;44.60;18.93;;;5.10;99.90;;;;;;5134951;28;20047;-80
2022/01/25 09:32:02;;;;;;;33.70;14.23;;;5.20;99.90;;;;;;5128444;28;20122;-79
2022/01/25 09:34:28;;;;;;;35.60;15.40;;;5.20;99.90;;;;;;5129943;28;20048;-76
2022/01/25 09:36:54;;;;;;;24.70;13.30;;;5.30;99.90;;;;;;5128519;28;20043;-78
2022/01/25 09:39:21;;;;;;;25.17;11.73;;;5.30;99.90;;;;;;5131095;28;20048;-79
2022/01/25 09:41:48;;;;;;;21.20;9.57;;;5.20;99.90;;;;;;5122920;28;20055;-88
2022/01/25 09:44:15;;;;;;;19.33;10.40;;;5.10;99.90;;;;;;5120953;28;20055;-84
2022/01/25 09:46:43;;;;;;;20.40;10.97;;;5.20;99.90;;;;;;5124549;28;20032;-81
2022/01/25 09:49:09;;;;;;;22.97;10.30;;;5.10;99.90;;;;;;5129454;28;20121;-81
2022/01/25 09:51:39;;;;;;;30.00;11.30;;;5.10;99.90;;;;;;5104317;28;20036;-83
2022/01/25 09:54:05;;;;;;;24.20;11.23;;;5.10;99.90;;;;;;5071627;28;20402;-85
2022/01/25 09:56:33;;;;;;;24.00;9.47;;;5.10;99.90;;;;;;5071689;28;20048;-85
2022/01/25 09:59:00;;;;;;;25.37;10.80;;;5.10;99.90;;;;;;5067964;28;20403;-81
2022/01/25 10:01:26;;;;;;;21.43;10.03;;;5.10;99.90;;;;;;5068689;28;20040;-83
2022/01/25 10:03:54;;;;;;;26.50;13.03;;;5.00;99.90;;;;;;5070826;28;20100;-84
2022/01/25 10:06:22;;;;;;;30.63;11.13;;;5.00;99.90;;;;;;5070778;28;20591;-81
2022/01/25 10:08:51;;;;;;;20.93;10.20;;;5.00;99.90;;;;;;5070566;28;20509;-83
2022/01/25 10:11:19;;;;;;;18.77;9.47;;;5.10;99.90;;;;;;5069335;28;20469;-81
2022/01/25 10:13:48;;;;;;;21.30;9.40;;;5.10;99.90;;;;;;5063018;28;21101;-81
2022/01/25 10:16:17;;;;;;;20.87;10.57;;;5.10;99.90;;;;;;5067351;28;20043;-79
2022/01/25 10:18:47;;;;;;;30.47;11.23;;;5.20;99.90;;;;;;5066450;28;20182;-82
2022/01/25 10:21:17;;;;;;;14.77;8.30;;;5.00;99.90;;;;;;5070535;28;20071;-83
2022/01/25 10:24:02;;;;;;;31.23;11.63;;;5.10;99.90;;;;;;5070952;28;20063;-84
2022/01/25 10:26:31;;;;;;;25.30;11.77;;;5.10;99.90;;;;;;5067504;28;20048;-81
2022/01/25 10:28:57;;;;;;;19.50;10.13;;;5.20;99.90;;;;;;5061188;28;20045;-88
2022/01/25 10:31:36;;;;;;;20.20;10.07;;;5.10;99.90;;;;;;5071211;28;20060;-84
2022/01/25 10:34:07;;;;;;;23.43;10.17;;;5.10;99.90;;;;;;5073934;28;20528;-88
2022/01/25 10:36:35;;;;;;;23.53;9.20;;;5.10;99.90;;;;;;5071008;28;20526;-84
2022/01/25 10:39:01;;;;;;;20.53;10.23;;;5.10;99.90;;;;;;5062524;28;20055;-83
2022/01/25 10:41:29;;;;;;;23.30;9.90;;;5.10;99.90;;;;;;5070811;28;20060;-83
2022/01/25 10:43:57;;;;;;;20.80;8.97;;;5.20;99.90;;;;;;5067744;28;20072;-81
2022/01/25 10:46:25;;;;;;;22.50;9.87;;;5.20;99.90;;;;;;5067668;28;20102;-78
2022/01/25 10:48:54;;;;;;;22.93;10.27;;;5.10;99.90;;;;;;5067805;28;20049;-79
2022/01/25 10:51:23;;;;;;;18.53;10.47;;;5.10;99.90;;;;;;5058620;28;20564;-80
2022/01/25 10:54:03;;;;;;;16.40;7.63;;;5.00;99.90;;;;;;5067162;28;20071;-81
2022/01/25 10:56:38;;;;;;;17.03;8.73;;;5.20;99.90;;;;;;5071686;28;20056;-82
2022/01/25 10:59:06;;;;;;;14.57;7.60;;;5.20;99.90;;;;;;5079536;28;20045;-84
2022/01/25 11:01:34;;;;;;;27.73;9.87;;;5.20;99.90;;;;;;5075875;28;20052;-80
2022/01/25 11:04:06;;;;;;;84.47;44.03;;;5.20;99.90;;;;;;5081097;28;20064;-83
2022/01/25 11:06:32;;;;;;;69.00;36.87;;;5.20;99.90;;;;;;5075319;28;20071;-81
2022/01/25 11:09:01;;;;;;;22.67;10.97;;;5.30;99.90;;;;;;5074665;28;20045;-83
2022/01/25 11:11:33;;;;;;;19.87;9.20;;;5.30;99.90;;;;;;5078430;28;20488;-84
2022/01/25 11:14:50;;;;;;;20.20;7.63;;;5.40;99.90;;;;;;5077451;28;20056;-89
2022/01/25 11:16:47;;;;;;;17.60;7.03;;;5.50;99.90;;;;;;5074963;28;20040;-80
2022/01/25 11:19:13;;;;;;;20.30;7.83;;;5.60;99.90;;;;;;5074829;28;20052;-81
2022/01/25 11:21:40;;;;;;;15.53;8.87;;;5.50;99.90;;;;;;5076092;28;20487;-81
2022/01/25 11:24:06;;;;;;;20.10;8.53;;;5.50;99.90;;;;;;5074577;28;20053;-76
2022/01/25 11:26:33;;;;;;;16.33;7.90;;;5.40;99.90;;;;;;5074380;28;20036;-80
2022/01/25 11:29:00;;;;;;;18.27;9.00;;;5.30;99.90;;;;;;5073417;28;20120;-86
2022/01/25 11:31:28;;;;;;;14.83;8.33;;;5.20;99.90;;;;;;5084343;28;20075;-84
2022/01/25 11:33:55;;;;;;;16.77;8.20;;;5.20;99.90;;;;;;5090367;28;20079;-84
2022/01/25 11:36:22;;;;;;;17.67;8.40;;;5.10;99.90;;;;;;5088155;28;20040;-86
2022/01/25 11:38:51;;;;;;;23.53;9.23;;;5.10;99.90;;;;;;5088548;28;20045;-84
2022/01/25 11:41:19;;;;;;;15.10;8.83;;;5.00;99.90;;;;;;5091552;28;20060;-85
2022/01/25 11:44:07;;;;;;;23.57;10.70;;;5.10;99.90;;;;;;5082141;28;20056;-77
2022/01/25 11:46:34;;;;;;;19.07;8.17;;;5.10;99.90;;;;;;5076875;28;20047;-77
2022/01/25 11:49:03;;;;;;;19.47;9.20;;;5.10;99.90;;;;;;5078803;28;20055;-78
2022/01/25 11:51:30;;;;;;;21.57;9.47;;;5.10;99.90;;;;;;5082551;28;20040;-79
2022/01/25 11:53:56;;;;;;;23.00;8.83;;;5.10;99.90;;;;;;5082533;28;20057;-80
2022/01/25 11:56:26;;;;;;;18.17;7.90;;;5.00;99.90;;;;;;5089145;28;20044;-82
2022/01/25 11:58:58;;;;;;;23.40;11.27;;;5.00;99.90;;;;;;5087985;28;20048;-83
2022/01/25 12:01:26;;;;;;;17.87;9.10;;;4.90;99.90;;;;;;5087059;28;20040;-80
2022/01/25 12:03:56;;;;;;;21.47;10.00;;;5.00;99.90;;;;;;5082915;28;20084;-78
2022/01/25 12:06:27;;;;;;;21.23;11.07;;;4.90;99.90;;;;;;5071736;28;20136;-78
2022/01/25 12:09:18;;;;;;;21.93;10.63;;;4.90;99.90;;;;;;5074158;28;20406;-79
2022/01/25 12:11:47;;;;;;;16.27;8.60;;;5.00;99.90;;;;;;5076395;28;20123;-79
2022/01/25 12:14:24;;;;;;;23.57;11.80;;;4.90;99.90;;;;;;5067986;28;20060;-78
2022/01/25 12:16:53;;;;;;;19.77;10.40;;;4.90;99.90;;;;;;5078827;28;20052;-79
2022/01/25 12:19:20;;;;;;;17.90;9.57;;;5.00;99.90;;;;;;5075173;28;20128;-80
2022/01/25 12:22:01;;;;;;;21.40;10.27;;;4.90;99.90;;;;;;5081157;28;20056;-78
2022/01/25 12:24:32;;;;;;;18.85;8.98;;;5.00;99.90;;;;;;5078877;28;20053;-80
2022/01/25 12:27:03;;;;;;;17.60;8.93;;;5.00;99.90;;;;;;5081587;28;20049;-81
2022/01/25 12:29:32;;;;;;;19.33;9.30;;;5.00;99.90;;;;;;5080149;28;20127;-79
2022/01/25 12:32:20;;;;;;;14.03;7.03;;;5.00;99.90;;;;;;5073227;28;20058;-80
2022/01/25 12:35:12;;;;;;;16.53;8.47;;;5.10;99.90;;;;;;5075365;28;20044;-85
2022/01/25 12:37:57;;;;;;;24.67;11.77;;;5.10;99.90;;;;;;5078785;28;20052;-81
2022/01/25 12:40:56;;;;;;;20.93;11.80;;;5.20;99.90;;;;;;5077569;28;20052;-82
2022/01/25 12:43:25;;;;;;;17.87;9.60;;;5.10;99.90;;;;;;5073553;28;20132;-82
2022/01/25 12:45:55;;;;;;;18.80;8.37;;;5.10;99.90;;;;;;5077213;28;20510;-82
2022/01/25 12:48:25;;;;;;;17.40;7.20;;;5.10;99.90;;;;;;5076999;28;20056;-81
2022/01/25 12:50:53;;;;;;;18.53;10.23;;;5.10;99.90;;;;;;5074729;28;20398;-80
2022/01/25 12:53:21;;;;;;;18.57;9.03;;;5.10;99.90;;;;;;5071639;28;20044;-83
2022/01/25 12:55:49;;;;;;;17.70;8.53;;;5.00;99.90;;;;;;5068266;28;20056;-82
2022/01/25 12:58:17;;;;;;;18.13;8.63;;;5.00;99.90;;;;;;5073862;28;20044;-81
2022/01/25 13:00:46;;;;;;;22.87;8.73;;;5.00;99.90;;;;;;5073613;28;20045;-83
2022/01/25 13:03:21;;;;;;;16.93;7.03;;;5.10;99.90;;;;;;5073780;28;20072;-81
2022/01/25 13:05:51;;;;;;;19.40;8.23;;;5.10;99.90;;;;;;5073194;28;20074;-80
2022/01/25 13:08:23;;;;;;;19.70;9.20;;;5.20;99.90;;;;;;5073299;28;20059;-82
2022/01/25 13:10:50;;;;;;;19.10;7.83;;;5.10;99.90;;;;;;5073396;28;20437;-81
2022/01/25 13:13:24;;;;;;;17.07;8.33;;;5.10;99.90;;;;;;5073221;28;20490;-81
2022/01/25 13:15:57;;;;;;;15.70;8.47;;;5.20;99.90;;;;;;5078514;28;20052;-82
2022/01/25 13:18:27;;;;;;;17.50;8.17;;;5.20;99.90;;;;;;5072931;28;20441;-81
2022/01/25 13:21:05;;;;;;;21.33;8.33;;;5.30;99.90;;;;;;5073702;28;20470;-81
2022/01/25 13:23:32;;;;;;;18.67;9.43;;;5.20;99.90;;;;;;5073732;28;20044;-82
2022/01/25 13:26:08;;;;;;;26.57;13.90;;;5.30;99.90;;;;;;5072670;28;20139;-82
2022/01/25 13:28:39;;;;;;;21.93;10.97;;;5.30;99.90;;;;;;5070554;28;20044;-82
2022/01/25 13:31:08;;;;;;;19.13;10.52;;;5.30;99.90;;;;;;5072914;28;20060;-82
2022/01/25 13:33:36;;;;;;;21.40;9.27;;;5.30;99.90;;;;;;5067332;28;20052;-85
2022/01/25 13:36:20;;;;;;;86.87;43.87;;;5.30;99.90;;;;;;5069468;28;20036;-84
2022/01/25 13:39:11;;;;;;;52.77;28.03;;;5.30;99.90;;;;;;5064538;28;20065;-85
2022/01/25 13:42:20;;;;;;;25.73;16.10;;;5.30;99.90;;;;;;5066015;28;20061;-84
2022/01/25 13:48:19;;;;;;;18.23;9.90;;;5.30;99.90;;;;;;5063958;28;20056;-84
2022/01/25 13:50:58;;;;;;;20.90;9.27;;;5.30;99.90;;;;;;5062732;28;20456;-86
2022/01/25 13:53:39;;;;;;;17.83;9.20;;;5.20;99.90;;;;;;5073247;28;20467;-85
2022/01/25 13:56:20;;;;;;;15.60;7.20;;;5.20;99.90;;;;;;5057268;28;20087;-86
2022/01/25 13:58:54;;;;;;;15.57;8.40;;;5.30;99.90;;;;;;5072921;28;20114;-86
2022/01/25 14:01:28;;;;;;;14.63;6.67;;;5.30;99.90;;;;;;5074645;28;20052;-84
2022/01/25 14:04:03;;;;;;;14.47;7.63;;;5.30;99.90;;;;;;5069464;28;20056;-86
2022/01/25 14:06:39;;;;;;;21.80;8.70;;;5.20;99.90;;;;;;5071008;28;20060;-83
2022/01/25 14:09:16;;;;;;;18.00;7.80;;;5.20;99.90;;;;;;5071300;28;20064;-84
2022/01/25 14:23:21;;;;;;;20.13;8.70;;;5.10;99.90;;;;;;5064103;28;20079;-84